Douglas B.gurian — WDH7352 — position and weather

sailwx.info

Track history (hours):
 
Tides and Currents Weather Stations Pressure Air Temp Water Temp Dewpoint Dewpoint Depression Visibility Wind Speed Wind Dir Waves Ship Positions

Douglas B.gurian

Owner: Port Imperial Ferry Corporation, Weehawken, NJ. More information available from US FCC via Universal Licensing System and Coast Guard Vessel Documentation Center.

Last reported at 2017-Nov-29 13:45 UTC. Time now 2017-Dec-12 16:18 UTC.
Position N 40°46' W 074°01'.
Warning: this ship's position is 13 days out of date.

Length 21 m.

Type: Passenger vessel. MMSI: 366834170.

Date/timePositionNaut miles runAvg speedWind from/ knotsBaromVisibWave heightAir tempDewpointWater temp
2017-Nov-29 13:45N 40°46' W 074°01'  
2017-Nov-26 19:53N 40°46' W 074°01'0 0.0
2017-Nov-26 19:30N 40°46' W 074°01'0 0.0
2017-Nov-26 19:00N 40°46' W 074°01'0 0.0
2017-Nov-26 18:30N 40°46' W 074°01'0 0.0
2017-Nov-26 18:00N 40°46' W 074°01'0 0.0
2017-Nov-26 17:30N 40°46' W 074°01'0 0.0
2017-Nov-26 17:00N 40°46' W 074°01'0 0.0
2017-Nov-26 16:30N 40°46' W 074°01'0 0.0
2017-Nov-26 16:00N 40°46' W 074°01'0 0.0
2017-Nov-26 15:30N 40°46' W 074°01'0 0.0
2017-Nov-26 15:00N 40°46' W 074°01'0 0.0
2017-Nov-26 14:30N 40°46' W 074°01'0 0.0
2017-Nov-26 13:59N 40°46' W 074°01'0 0.0
2017-Nov-26 13:30N 40°46' W 074°01'0 0.0
2017-Nov-26 13:00N 40°46' W 074°01'0 0.0
2017-Nov-26 12:30N 40°46' W 074°01'0 0.0
2017-Nov-26 12:00N 40°46' W 074°01'0 0.0
2017-Nov-26 11:30N 40°46' W 074°01'0 0.0
2017-Nov-26 11:00N 40°46' W 074°01'0 0.0
2017-Nov-26 10:30N 40°46' W 074°01'0 0.0
2017-Nov-26 10:00N 40°46' W 074°01'0 0.0
2017-Nov-26 09:30N 40°46' W 074°01'0 0.0
2017-Nov-26 09:00N 40°46' W 074°01'0 0.0
2017-Nov-26 08:30N 40°46' W 074°01'0 0.0
2017-Nov-26 08:00N 40°46' W 074°01'0 0.0
2017-Nov-26 07:30N 40°46' W 074°01'0 0.0
2017-Nov-26 06:59N 40°46' W 074°01'0 0.0
2017-Nov-26 06:30N 40°46' W 074°01'0 0.0
2017-Nov-26 05:59N 40°46' W 074°01'0 0.0
2017-Nov-26 05:30N 40°46' W 074°01'0 0.0
2017-Nov-26 05:00N 40°46' W 074°01'0 0.0
2017-Nov-26 04:30N 40°46' W 074°01'0 0.0
2017-Nov-26 04:00N 40°46' W 074°01'0 0.0
2017-Nov-26 03:30N 40°46' W 074°01'0 0.0
2017-Nov-26 03:00N 40°46' W 074°01'0 0.0
2017-Nov-26 02:30N 40°46' W 074°01'0 0.0
2017-Nov-26 02:00N 40°46' W 074°01'0 0.0
2017-Nov-26 01:30N 40°46' W 074°01'0 0.0
2017-Nov-26 01:00N 40°46' W 074°01'0 0.0
2017-Nov-26 00:30N 40°46' W 074°01'0 0.0
2017-Nov-26 00:00N 40°46' W 074°01'0 0.0
2017-Nov-25 23:29N 40°46' W 074°01'0 0.0
2017-Nov-25 23:00N 40°46' W 074°01'0 0.0
2017-Nov-25 22:29N 40°46' W 074°01'0 0.0
2017-Nov-25 22:00N 40°46' W 074°01'0 0.0
2017-Nov-25 21:30N 40°46' W 074°01'0 0.0
2017-Nov-25 20:59N 40°46' W 074°01'0 0.0
2017-Nov-25 20:30N 40°46' W 074°01'0 0.0
2017-Nov-25 20:00N 40°46' W 074°01'0 0.0
2017-Nov-25 19:30N 40°46' W 074°01'0 0.0
2017-Nov-25 19:01N 40°46' W 074°01'0 0.0
2017-Nov-25 18:30N 40°46' W 074°01'0 0.0
2017-Nov-25 18:00N 40°46' W 074°01'0 0.0
2017-Nov-25 17:29N 40°46' W 074°01'0 0.0
2017-Nov-25 17:00N 40°46' W 074°01'0 0.0
2017-Nov-25 16:30N 40°46' W 074°01'0 0.0
2017-Nov-25 16:01N 40°46' W 074°01'0 0.0
2017-Nov-25 15:29N 40°46' W 074°01'0 0.0
2017-Nov-25 15:00N 40°46' W 074°01'0 0.0
2017-Nov-25 14:30N 40°46' W 074°01'0 0.0
2017-Nov-25 14:00N 40°46' W 074°01'0 0.0
2017-Nov-25 13:29N 40°46' W 074°01'0 0.0
2017-Nov-24 23:42N 40°46' W 074°01'313.7
2017-Nov-24 23:31N 40°44' W 074°01'1 2.7
2017-Nov-24 23:00N 40°43' W 074°03'0 0.0
2017-Nov-24 22:30N 40°43' W 074°03'0 0.0
2017-Nov-24 22:00N 40°43' W 074°03'0 0.0
2017-Nov-24 21:30N 40°43' W 074°03'0 0.0
2017-Nov-24 21:00N 40°43' W 074°03'0 0.0
2017-Nov-24 20:30N 40°43' W 074°03'0 0.0
2017-Nov-24 20:00N 40°43' W 074°03'4 7.7
2017-Nov-24 19:30N 40°46' W 074°00'0 0.3
2017-Nov-24 18:39N 40°46' W 074°01'212.1
2017-Nov-24 18:31N 40°45' W 074°01'2 3.4
2017-Nov-24 18:00N 40°46' W 074°01'0 0.0
2017-Nov-24 15:42N 40°46' W 074°01'318.4
2017-Nov-24 15:31N 40°43' W 074°02'1 2.7
2017-Nov-24 15:01N 40°42' W 074°00'1 2.8
2017-Nov-24 14:30N 40°43' W 074°02'1 2.9
2017-Nov-24 14:00N 40°42' W 074°00'1 2.9
2017-Nov-24 13:31N 40°43' W 074°02'1 2.8
2017-Nov-24 13:00N 40°42' W 074°00'1 2.8
2017-Nov-24 12:30N 40°43' W 074°02'1 2.8
2017-Nov-24 12:00N 40°42' W 074°00'1 2.8
2017-Nov-24 11:30N 40°43' W 074°02'1 1.0
2017-Nov-24 11:01N 40°43' W 074°03'1 0.0
2017-Nov-23 02:40N 40°42' W 074°01'1 5.0
2017-Nov-23 02:31N 40°41' W 074°01'1 1.2
2017-Nov-23 02:00N 40°42' W 074°01'1 1.5
2017-Nov-23 01:31N 40°41' W 074°01'1 1.5
2017-Nov-23 01:01N 40°42' W 074°01'0 0.6
2017-Nov-23 00:30N 40°42' W 074°00'0 0.1
2017-Nov-23 00:00N 40°42' W 074°00'0 0.1
2017-Nov-22 23:31N 40°42' W 074°00'0 0.1
2017-Nov-22 23:00N 40°42' W 074°00'0 0.0
2017-Nov-22 22:30N 40°42' W 074°00'0 0.0
2017-Nov-22 22:00N 40°42' W 074°00'0 0.0
2017-Nov-22 21:30N 40°42' W 074°00'0 0.2
2017-Nov-22 21:00N 40°42' W 074°00'1 2.9
2017-Nov-22 20:31N 40°43' W 074°02'1 2.7
2017-Nov-22 20:00N 40°42' W 074°00'1 2.8
2017-Nov-22 19:31N 40°43' W 074°02'  
Track history (hours):
 
Tides and Currents Weather Stations Pressure Air Temp Water Temp Dewpoint Dewpoint Depression Visibility Wind Speed Wind Dir Waves Ship Positions

Douglas B.gurian

Owner: Port Imperial Ferry Corporation, Weehawken, NJ. More information available from US FCC via Universal Licensing System and Coast Guard Vessel Documentation Center.

Last reported at 2017-Nov-29 13:45 UTC. Time now 2017-Dec-12 16:18 UTC.
Position N 40°46' W 074°01'.
Warning: this ship's position is 13 days out of date.

Length 21 m.

Type: Passenger vessel. MMSI: 366834170.

Date/timePositionNaut miles runAvg speedWind from/ knotsBaromVisibWave heightAir tempDewpointWater temp
2017-Nov-29 13:45N 40°46' W 074°01'  
2017-Nov-26 19:53N 40°46' W 074°01'0 0.0
2017-Nov-26 19:30N 40°46' W 074°01'0 0.0
2017-Nov-26 19:00N 40°46' W 074°01'0 0.0
2017-Nov-26 18:30N 40°46' W 074°01'0 0.0
2017-Nov-26 18:00N 40°46' W 074°01'0 0.0
2017-Nov-26 17:30N 40°46' W 074°01'0 0.0
2017-Nov-26 17:00N 40°46' W 074°01'0 0.0
2017-Nov-26 16:30N 40°46' W 074°01'0 0.0
2017-Nov-26 16:00N 40°46' W 074°01'0 0.0
2017-Nov-26 15:30N 40°46' W 074°01'0 0.0
2017-Nov-26 15:00N 40°46' W 074°01'0 0.0
2017-Nov-26 14:30N 40°46' W 074°01'0 0.0
2017-Nov-26 13:59N 40°46' W 074°01'0 0.0
2017-Nov-26 13:30N 40°46' W 074°01'0 0.0
2017-Nov-26 13:00N 40°46' W 074°01'0 0.0
2017-Nov-26 12:30N 40°46' W 074°01'0 0.0
2017-Nov-26 12:00N 40°46' W 074°01'0 0.0
2017-Nov-26 11:30N 40°46' W 074°01'0 0.0
2017-Nov-26 11:00N 40°46' W 074°01'0 0.0
2017-Nov-26 10:30N 40°46' W 074°01'0 0.0
2017-Nov-26 10:00N 40°46' W 074°01'0 0.0
2017-Nov-26 09:30N 40°46' W 074°01'0 0.0
2017-Nov-26 09:00N 40°46' W 074°01'0 0.0
2017-Nov-26 08:30N 40°46' W 074°01'0 0.0
2017-Nov-26 08:00N 40°46' W 074°01'0 0.0
2017-Nov-26 07:30N 40°46' W 074°01'0 0.0
2017-Nov-26 06:59N 40°46' W 074°01'0 0.0
2017-Nov-26 06:30N 40°46' W 074°01'0 0.0
2017-Nov-26 05:59N 40°46' W 074°01'0 0.0
2017-Nov-26 05:30N 40°46' W 074°01'0 0.0
2017-Nov-26 05:00N 40°46' W 074°01'0 0.0
2017-Nov-26 04:30N 40°46' W 074°01'0 0.0
2017-Nov-26 04:00N 40°46' W 074°01'0 0.0
2017-Nov-26 03:30N 40°46' W 074°01'0 0.0
2017-Nov-26 03:00N 40°46' W 074°01'0 0.0
2017-Nov-26 02:30N 40°46' W 074°01'0 0.0
2017-Nov-26 02:00N 40°46' W 074°01'0 0.0
2017-Nov-26 01:30N 40°46' W 074°01'0 0.0
2017-Nov-26 01:00N 40°46' W 074°01'0 0.0
2017-Nov-26 00:30N 40°46' W 074°01'0 0.0
2017-Nov-26 00:00N 40°46' W 074°01'0 0.0
2017-Nov-25 23:29N 40°46' W 074°01'0 0.0
2017-Nov-25 23:00N 40°46' W 074°01'0 0.0
2017-Nov-25 22:29N 40°46' W 074°01'0 0.0
2017-Nov-25 22:00N 40°46' W 074°01'0 0.0
2017-Nov-25 21:30N 40°46' W 074°01'0 0.0
2017-Nov-25 20:59N 40°46' W 074°01'0 0.0
2017-Nov-25 20:30N 40°46' W 074°01'0 0.0
2017-Nov-25 20:00N 40°46' W 074°01'0 0.0
2017-Nov-25 19:30N 40°46' W 074°01'0 0.0
2017-Nov-25 19:01N 40°46' W 074°01'0 0.0
2017-Nov-25 18:30N 40°46' W 074°01'0 0.0
2017-Nov-25 18:00N 40°46' W 074°01'0 0.0
2017-Nov-25 17:29N 40°46' W 074°01'0 0.0
2017-Nov-25 17:00N 40°46' W 074°01'0 0.0
2017-Nov-25 16:30N 40°46' W 074°01'0 0.0
2017-Nov-25 16:01N 40°46' W 074°01'0 0.0
2017-Nov-25 15:29N 40°46' W 074°01'0 0.0
2017-Nov-25 15:00N 40°46' W 074°01'0 0.0
2017-Nov-25 14:30N 40°46' W 074°01'0 0.0
2017-Nov-25 14:00N 40°46' W 074°01'0 0.0
2017-Nov-25 13:29N 40°46' W 074°01'0 0.0
2017-Nov-24 23:42N 40°46' W 074°01'313.7
2017-Nov-24 23:31N 40°44' W 074°01'1 2.7
2017-Nov-24 23:00N 40°43' W 074°03'0 0.0
2017-Nov-24 22:30N 40°43' W 074°03'0 0.0
2017-Nov-24 22:00N 40°43' W 074°03'0 0.0
2017-Nov-24 21:30N 40°43' W 074°03'0 0.0
2017-Nov-24 21:00N 40°43' W 074°03'0 0.0
2017-Nov-24 20:30N 40°43' W 074°03'0 0.0
2017-Nov-24 20:00N 40°43' W 074°03'4 7.7
2017-Nov-24 19:30N 40°46' W 074°00'0 0.3
2017-Nov-24 18:39N 40°46' W 074°01'212.1
2017-Nov-24 18:31N 40°45' W 074°01'2 3.4
2017-Nov-24 18:00N 40°46' W 074°01'0 0.0
2017-Nov-24 15:42N 40°46' W 074°01'318.4
2017-Nov-24 15:31N 40°43' W 074°02'1 2.7
2017-Nov-24 15:01N 40°42' W 074°00'1 2.8
2017-Nov-24 14:30N 40°43' W 074°02'1 2.9
2017-Nov-24 14:00N 40°42' W 074°00'1 2.9
2017-Nov-24 13:31N 40°43' W 074°02'1 2.8
2017-Nov-24 13:00N 40°42' W 074°00'1 2.8
2017-Nov-24 12:30N 40°43' W 074°02'1 2.8
2017-Nov-24 12:00N 40°42' W 074°00'1 2.8
2017-Nov-24 11:30N 40°43' W 074°02'1 1.0
2017-Nov-24 11:01N 40°43' W 074°03'1 0.0
2017-Nov-23 02:40N 40°42' W 074°01'1 5.0
2017-Nov-23 02:31N 40°41' W 074°01'1 1.2
2017-Nov-23 02:00N 40°42' W 074°01'1 1.5
2017-Nov-23 01:31N 40°41' W 074°01'1 1.5
2017-Nov-23 01:01N 40°42' W 074°01'0 0.6
2017-Nov-23 00:30N 40°42' W 074°00'0 0.1
2017-Nov-23 00:00N 40°42' W 074°00'0 0.1
2017-Nov-22 23:31N 40°42' W 074°00'0 0.1
2017-Nov-22 23:00N 40°42' W 074°00'0 0.0
2017-Nov-22 22:30N 40°42' W 074°00'0 0.0
2017-Nov-22 22:00N 40°42' W 074°00'0 0.0
2017-Nov-22 21:30N 40°42' W 074°00'0 0.2
2017-Nov-22 21:00N 40°42' W 074°00'1 2.9
2017-Nov-22 20:31N 40°43' W 074°02'1 2.7
2017-Nov-22 20:00N 40°42' W 074°00'1 2.8
2017-Nov-22 19:31N 40°43' W 074°02'  

Dump ship's entire track history